createdAt,value
2022-09-14T00:01:21.286Z,1.63
2022-09-14T00:06:20.524Z,1.45
2022-09-14T00:11:25.866Z,1.60
2022-09-14T00:16:34.467Z,1.38
2022-09-14T00:21:42.883Z,1.45
2022-09-14T00:26:46.258Z,1.40
2022-09-14T00:31:51.276Z,1.65
2022-09-14T00:36:54.346Z,1.85
2022-09-14T00:41:57.582Z,1.55
2022-09-14T00:47:03.923Z,1.30
2022-09-14T00:52:11.476Z,1.77
2022-09-14T00:57:15.564Z,1.27
2022-09-14T01:02:22.203Z,1.23
2022-09-14T01:07:38.710Z,1.42
2022-09-14T01:13:04.067Z,2.03
2022-09-14T01:18:15.498Z,1.77
2022-09-14T01:23:25.535Z,1.75
2022-09-14T01:28:36.702Z,1.45
2022-09-14T01:33:46.520Z,1.63
2022-09-14T01:38:53.259Z,1.98
2022-09-14T01:44:00.919Z,1.60
2022-09-14T01:49:14.907Z,1.65
2022-09-14T01:54:22.865Z,1.83
2022-09-14T01:59:32.299Z,1.30
2022-09-14T02:04:42.398Z,1.70
2022-09-14T02:09:46.365Z,1.92
2022-09-14T02:14:53.192Z,2.30
2022-09-14T02:20:00.087Z,2.00
2022-09-14T02:25:03.794Z,2.00
2022-09-14T02:30:10.118Z,2.33
2022-09-14T02:35:21.093Z,1.90
2022-09-14T02:40:33.571Z,1.75
2022-09-14T02:45:47.473Z,1.90
2022-09-14T02:50:57.427Z,2.88
2022-09-14T02:56:03.495Z,2.10
2022-09-14T03:01:09.414Z,1.75
2022-09-14T03:06:12.527Z,2.10
2022-09-14T03:11:15.779Z,1.50
2022-09-14T03:16:20.195Z,1.38
2022-09-14T03:21:23.195Z,2.22
2022-09-14T03:26:29.279Z,1.67
2022-09-14T03:31:34.816Z,1.95
2022-09-14T03:36:37.809Z,2.30
2022-09-14T03:41:41.102Z,1.90
2022-09-14T03:46:45.581Z,1.80
2022-09-14T03:51:48.658Z,1.90
2022-09-14T03:56:54.086Z,2.20
2022-09-14T04:01:58.457Z,1.73
2022-09-14T04:07:01.517Z,2.10
2022-09-14T04:12:04.530Z,1.67
2022-09-14T04:17:10.721Z,1.73
2022-09-14T04:22:13.724Z,1.92
2022-09-14T04:27:16.802Z,1.83
2022-09-14T04:32:21.160Z,1.15
2022-09-14T04:37:24.613Z,1.55
2022-09-14T04:42:27.634Z,1.60
2022-09-14T04:47:31.930Z,1.27
2022-09-14T04:52:35.126Z,1.60
2022-09-14T04:57:38.038Z,1.88
2022-09-14T05:02:43.631Z,1.40
2022-09-14T05:07:46.817Z,1.55
2022-09-14T05:12:49.920Z,2.35
2022-09-14T05:17:54.238Z,1.83
2022-09-14T05:22:57.185Z,2.15
2022-09-14T05:28:01.321Z,2.13
2022-09-14T05:33:05.840Z,2.17
2022-09-14T05:38:08.826Z,1.88
2022-09-14T05:43:11.738Z,2.40
2022-09-14T05:48:16.668Z,2.30
2022-09-14T05:53:19.695Z,2.20
2022-09-14T05:58:22.917Z,2.00
2022-09-14T06:03:27.510Z,2.20
2022-09-14T06:08:30.579Z,2.58
2022-09-14T06:13:34.018Z,2.60
2022-09-14T06:18:39.839Z,2.70
2022-09-14T06:23:43.195Z,2.92
2022-09-14T06:28:46.429Z,2.80
2022-09-14T06:33:51.812Z,2.85
2022-09-14T06:38:54.933Z,2.70
2022-09-14T06:43:58.890Z,2.25
2022-09-14T06:49:05.469Z,2.38
2022-09-14T06:54:12.060Z,2.38
2022-09-14T06:59:16.725Z,2.10
2022-09-14T07:04:21.660Z,2.17
2022-09-14T07:09:25.653Z,1.90
2022-09-14T07:14:32.211Z,2.13
2022-09-14T07:19:36.859Z,2.25
2022-09-14T07:24:42.276Z,2.25
2022-09-14T07:29:45.583Z,2.15
2022-09-14T07:34:49.950Z,1.80
2022-09-14T07:39:52.968Z,2.40
2022-09-14T07:44:56.064Z,2.47
2022-09-14T07:50:00.516Z,3.10
2022-09-14T07:55:03.673Z,2.78
2022-09-14T08:00:08.687Z,2.75
2022-09-14T08:05:16.555Z,2.38
2022-09-14T08:10:19.456Z,2.35
2022-09-14T08:15:27.798Z,2.67
2022-09-14T08:20:32.960Z,2.85
2022-09-14T08:25:36.100Z,2.80
2022-09-14T08:30:39.010Z,4.50
2022-09-14T08:36:01.621Z,5.45
2022-09-14T08:41:12.651Z,6.15
2022-09-14T08:46:23.652Z,6.15
2022-09-14T08:51:28.965Z,4.60
2022-09-14T08:56:34.400Z,2.95
2022-09-14T09:01:45.068Z,2.63
2022-09-14T09:06:57.141Z,3.50
2022-09-14T09:12:00.788Z,3.22
2022-09-14T09:17:11.041Z,3.15
2022-09-14T09:22:21.707Z,2.30
2022-09-14T09:27:26.388Z,2.50
2022-09-14T09:32:29.606Z,2.22
2022-09-14T09:38:03.297Z,2.40
2022-09-14T09:43:12.437Z,2.20
2022-09-14T09:48:16.293Z,2.28
2022-09-14T09:53:23.877Z,1.50
2022-09-14T09:58:33.164Z,1.52
2022-09-14T10:03:40.996Z,1.23
2022-09-14T10:08:47.706Z,1.33
2022-09-14T10:13:50.674Z,1.30
2022-09-14T10:18:55.056Z,1.30
2022-09-14T10:24:17.006Z,0.98
2022-09-14T10:29:31.929Z,1.75
2022-09-14T10:34:35.513Z,1.38
2022-09-14T10:39:49.102Z,1.73
2022-09-14T10:45:06.271Z,1.08
2022-09-14T10:50:26.445Z,1.05
2022-09-14T10:55:40.127Z,1.00
2022-09-14T11:00:55.684Z,1.50
2022-09-14T11:06:10.726Z,1.15
2022-09-14T11:11:41.490Z,1.00
2022-09-14T11:17:02.914Z,1.40
2022-09-14T11:22:16.199Z,1.35
2022-09-14T11:27:27.098Z,1.27
2022-09-14T11:32:34.055Z,1.40
2022-09-14T11:37:43.183Z,1.27
2022-09-14T11:42:57.521Z,1.50
2022-09-14T11:48:40.777Z,1.80
2022-09-14T11:53:34.596Z,2.10
2022-09-14T11:58:39.028Z,2.08
2022-09-14T12:04:10.684Z,1.65
2022-09-14T12:09:50.461Z,1.58
2022-09-14T12:15:00.632Z,1.80
2022-09-14T12:20:36.381Z,2.08
2022-09-14T12:25:41.238Z,2.17
2022-09-14T12:31:23.715Z,2.30
2022-09-14T12:37:11.298Z,2.55
2022-09-14T12:42:32.242Z,3.17
2022-09-14T12:47:59.307Z,2.33
2022-09-14T12:53:22.646Z,3.20
2022-09-14T12:58:43.293Z,2.75
2022-09-14T13:03:51.999Z,3.20
2022-09-14T13:08:58.092Z,2.80
2022-09-14T13:14:04.069Z,2.97
2022-09-14T13:19:20.169Z,2.60
2022-09-14T13:24:31.390Z,2.20
2022-09-14T13:29:36.996Z,2.45
2022-09-14T13:34:41.028Z,2.63
2022-09-14T13:39:51.963Z,2.85
2022-09-14T13:44:57.170Z,2.40
2022-09-14T13:50:00.618Z,2.53
2022-09-14T13:55:18.988Z,2.80
2022-09-14T14:00:24.358Z,2.72
2022-09-14T14:05:29.267Z,2.70
2022-09-14T14:10:34.693Z,2.78
2022-09-14T14:15:43.916Z,2.33
2022-09-14T14:20:47.293Z,2.25
2022-09-14T14:25:54.323Z,2.53
2022-09-14T14:31:07.868Z,2.45
2022-09-14T14:36:11.725Z,2.60
2022-09-14T14:41:17.484Z,2.60
2022-09-14T14:46:21.982Z,2.20
2022-09-14T14:51:25.312Z,2.97
2022-09-14T14:56:28.596Z,2.30
2022-09-14T15:01:33.476Z,2.60
2022-09-14T15:12:50.770Z,3.00
2022-09-14T15:17:55.586Z,2.30
2022-09-14T15:22:58.907Z,2.17
2022-09-14T15:28:02.338Z,2.80
2022-09-14T15:33:06.960Z,3.33
2022-09-14T15:38:13.174Z,2.60
2022-09-14T15:43:16.144Z,2.55
2022-09-14T15:48:20.695Z,2.63
2022-09-14T15:53:23.830Z,2.35
2022-09-14T15:58:27.441Z,2.70
2022-09-14T16:03:31.859Z,2.38
2022-09-14T16:08:36.793Z,2.30
2022-09-14T16:13:42.369Z,2.70
2022-09-14T16:18:47.850Z,2.58
2022-09-14T16:23:53.229Z,2.33
2022-09-14T16:28:57.185Z,2.53
2022-09-14T16:34:03.326Z,2.60
2022-09-14T16:39:10.252Z,2.33
2022-09-14T16:44:15.358Z,2.20
2022-09-14T16:49:23.634Z,2.97
2022-09-14T16:54:31.801Z,2.50
2022-09-14T16:59:34.965Z,3.03
2022-09-14T17:04:39.391Z,2.40
2022-09-14T17:09:42.550Z,2.42
2022-09-14T17:14:46.797Z,3.00
2022-09-14T17:19:51.262Z,2.63
2022-09-14T17:24:54.716Z,2.97
2022-09-14T17:29:57.755Z,2.75
2022-09-14T17:35:03.204Z,2.70
2022-09-14T17:40:09.323Z,3.08
2022-09-14T17:45:12.639Z,2.63
2022-09-14T17:50:17.104Z,3.30
2022-09-14T17:55:20.165Z,3.15
2022-09-14T18:00:23.325Z,3.72
2022-09-14T18:05:28.249Z,3.83
2022-09-14T18:10:31.542Z,3.83
2022-09-14T18:15:38.302Z,4.47
2022-09-14T18:20:44.900Z,3.85
2022-09-14T18:25:48.269Z,3.75
2022-09-14T18:30:52.040Z,4.20
2022-09-14T18:35:57.003Z,4.40
2022-09-14T18:41:05.064Z,4.30
2022-09-14T18:46:09.182Z,4.72
2022-09-14T18:51:15.421Z,4.35
2022-09-14T18:56:19.197Z,5.13
2022-09-14T19:01:22.543Z,4.85
2022-09-14T19:06:32.041Z,4.53
2022-09-14T19:11:36.318Z,4.32
2022-09-14T19:16:43.157Z,4.63
2022-09-14T19:21:47.909Z,4.88
2022-09-14T19:26:52.853Z,4.70
2022-09-14T19:31:56.727Z,4.68
2022-09-14T19:37:01.100Z,5.20
2022-09-14T19:42:04.931Z,5.25
2022-09-14T19:47:08.102Z,4.90
2022-09-14T19:52:12.640Z,5.57
2022-09-14T19:57:15.697Z,5.20
2022-09-14T20:02:18.840Z,5.28
2022-09-14T20:07:23.685Z,4.93
2022-09-14T20:12:26.786Z,5.88
2022-09-14T20:17:29.992Z,4.68
2022-09-14T20:22:34.401Z,4.70
2022-09-14T20:27:39.672Z,4.82
2022-09-14T20:32:42.958Z,4.85
2022-09-14T20:37:47.610Z,4.18
2022-09-14T20:42:50.845Z,4.00
2022-09-14T20:47:53.815Z,3.97
2022-09-14T20:52:58.210Z,3.60
2022-09-14T20:58:01.241Z,4.00
2022-09-14T21:03:04.364Z,4.20
2022-09-14T21:08:09.065Z,3.70
2022-09-14T21:13:12.244Z,3.72
2022-09-14T21:18:19.969Z,3.75
2022-09-14T21:23:25.338Z,3.42
2022-09-14T21:28:28.873Z,3.85
2022-09-14T21:33:33.580Z,5.38
2022-09-14T21:38:41.040Z,3.88
2022-09-14T21:43:44.248Z,3.83
2022-09-14T21:48:47.654Z,3.60
2022-09-14T21:53:54.426Z,3.25
2022-09-14T21:58:58.786Z,3.65
2022-09-14T22:04:02.271Z,3.30
2022-09-14T22:09:07.104Z,3.20
2022-09-14T22:14:13.248Z,2.95
2022-09-14T22:19:19.433Z,2.92
2022-09-14T22:24:25.780Z,2.90
2022-09-14T22:29:30.721Z,3.28
2022-09-14T22:34:35.713Z,2.78
2022-09-14T22:39:40.058Z,3.20
2022-09-14T22:44:43.320Z,2.80
2022-09-14T22:49:46.710Z,3.63
2022-09-14T22:54:51.052Z,2.95
2022-09-14T22:59:54.264Z,3.17
2022-09-14T23:04:57.309Z,3.10
2022-09-14T23:10:01.629Z,2.97
2022-09-14T23:15:05.148Z,2.90
2022-09-14T23:20:09.532Z,3.70
2022-09-14T23:25:14.051Z,3.33
2022-09-14T23:30:17.031Z,3.28
2022-09-14T23:35:21.033Z,3.20
2022-09-14T23:40:25.919Z,4.68
2022-09-14T23:45:29.115Z,4.20
2022-09-14T23:50:32.192Z,4.60
2022-09-14T23:55:36.947Z,3.83
